Terminal Aerodrome Forecast
Issued by NWS

Home | Current Version | Previous Version | Text Only | Print | Product List | Glossary On
Versions: 1 2 3 4 5 6 7 8 9 10 11 12 13 14 15 16 17 18 19 20 21 22 23 24 25 26 27 28 29 30
948
FTUS43 KTOP 222338
TAFFOE
TAF
KFOE 222338Z 2300/2324 34008KT P6SM SCT020 BKN035
      TEMPO 2300/2302 34008G16KT BKN020
     FM231000 32004KT 3SM BR FEW200
      TEMPO 2310/2314 1SM BR
     FM231500 17006KT P6SM SCT150=

USA.gov is the U.S. government's official web portal to all federal, state and local government web resources and services.